Agate, North Dakota
Current Conditions -  °F | °C
As of 12:55 PM on Sunday 23 Nov 2014 (Local Time) from K9D7 Reporting Station
Unknown Precip Unknown Precip  
Wind Chill: 10°   Ceiling: 500
Heat Index: 23°   Visibility: 2.5mi
Dew Point: 21°   Wind: 16mph
Humidity: 93%   Direction: 350°N
Pressure: 29.48"   Gusts: 21mph
Location:  48.62°N, 99.5°W
Report Text: K9D7 231855Z AUTO 35014G18KT 2 1/2SM UP OVC005 M05/M06 A2948 RMK AO2
Loading
Personal Weather Stations






























Interactive Weather Map New forecast layout! Learn more

10-Day Weather Forecast

Advertisements
Track Severe Weather on mobile